Time;durP1;ratioP1;P1;durP2;ratioP2;P2;SDS_P1;SDS_P2;PMS_P1;PMS_P2;Temp;Humidity;BMP_temperature;BMP_pressure;BME280_temperature;BME280_humidity;BME280_pressure;Samples;Min_cycle;Max_cycle;Signal;HPM_P1;HPM_P2
2022/09/06 00:02:18;;;;;;;5.60;2.10;;;16.40;1.00;;;;;;5129602;27;20401;-78
2022/09/06 00:04:45;;;;;;;6.30;1.70;;;16.50;1.00;;;;;;5129023;27;20468;-79
2022/09/06 00:07:17;;;;;;;5.67;2.00;;;16.40;1.00;;;;;;5125594;27;20451;-78
2022/09/06 00:09:44;;;;;;;6.00;2.20;;;16.40;1.00;;;;;;5127661;27;20507;-79
2022/09/06 00:12:19;;;;;;;5.00;1.73;;;16.30;1.00;;;;;;5130177;27;20472;-76
2022/09/06 00:14:46;;;;;;;8.30;1.80;;;16.30;1.00;;;;;;5144548;27;20472;-80
2022/09/06 00:17:21;;;;;;;6.10;1.90;;;16.30;1.00;;;;;;5123316;27;20571;-79
2022/09/06 00:19:48;;;;;;;5.10;1.70;;;16.20;1.00;;;;;;5138504;27;20943;-81
2022/09/06 00:22:19;;;;;;;8.20;2.30;;;16.20;1.00;;;;;;5150665;27;20416;-79
2022/09/06 00:24:46;;;;;;;5.83;2.07;;;16.10;1.00;;;;;;5133765;27;20479;-76
2022/09/06 00:27:21;;;;;;;6.87;2.13;;;16.10;1.00;;;;;;5132075;27;20471;-80
2022/09/06 00:29:48;;;;;;;4.73;1.47;;;16.10;1.00;;;;;;5131704;27;20503;-79
2022/09/06 00:32:19;;;;;;;8.47;2.20;;;16.10;1.00;;;;;;5130854;27;20473;-78
2022/09/06 00:34:49;;;;;;;5.53;1.40;;;16.00;1.00;;;;;;5128811;27;20449;-76
2022/09/06 00:37:16;;;;;;;5.67;1.50;;;16.00;1.00;;;;;;5132634;27;22068;-79
2022/09/06 00:39:45;;;;;;;6.70;1.60;;;16.00;1.00;;;;;;5131502;27;20459;-78
2022/09/06 00:42:15;;;;;;;6.93;1.63;;;15.90;1.00;;;;;;5120364;27;20468;-76
2022/09/06 00:44:43;;;;;;;6.77;1.63;;;15.90;1.00;;;;;;5126515;27;20472;-76
2022/09/06 00:47:09;;;;;;;5.80;1.30;;;15.90;1.00;;;;;;5117766;27;20453;-79
2022/09/06 00:49:44;;;;;;;6.40;1.80;;;15.90;1.00;;;;;;5132798;27;20407;-77
2022/09/06 00:52:21;;;;;;;6.73;1.90;;;15.80;1.00;;;;;;5130062;27;20559;-78
2022/09/06 00:54:49;;;;;;;6.10;1.53;;;15.80;1.00;;;;;;5130109;27;20472;-79
2022/09/06 00:57:25;;;;;;;6.37;1.43;;;15.80;1.00;;;;;;5128551;27;20413;-78
2022/09/06 00:59:57;;;;;;;11.90;1.90;;;15.80;1.00;;;;;;5127722;27;20461;-79
2022/09/06 01:02:24;;;;;;;5.23;1.60;;;15.70;1.00;;;;;;5141024;27;20457;-79
2022/09/06 01:04:51;;;;;;;4.77;1.40;;;15.70;1.00;;;;;;5150942;27;20495;-79
2022/09/06 01:07:37;;;;;;;5.23;1.40;;;15.70;1.00;;;;;;5146675;27;20399;-78
2022/09/06 01:10:22;;;;;;;5.50;1.50;;;15.70;1.00;;;;;;5138660;27;20428;-77
2022/09/06 01:13:01;;;;;;;5.30;1.57;;;15.70;1.00;;;;;;5140871;27;20452;-78
2022/09/06 01:15:39;;;;;;;8.17;2.07;;;15.70;1.00;;;;;;5140767;27;22372;-79
2022/09/06 01:18:23;;;;;;;5.17;1.10;;;15.60;1.00;;;;;;5146013;27;20471;-78
2022/09/06 01:21:21;;;;;;;6.07;1.90;;;15.60;1.00;;;;;;5137682;27;20437;-79
2022/09/06 01:24:32;;;;;;;6.93;1.60;;;15.50;1.00;;;;;;5145010;27;20448;-79
2022/09/06 01:27:38;;;;;;;5.10;1.33;;;15.60;1.00;;;;;;5097820;27;20433;-78
2022/09/06 01:30:08;;;;;;;4.80;1.37;;;15.50;1.00;;;;;;5105448;27;20455;-77
2022/09/06 01:32:45;;;;;;;7.07;1.47;;;15.50;1.00;;;;;;5136387;27;20412;-77
2022/09/06 01:35:25;;;;;;;7.03;1.50;;;15.50;1.00;;;;;;5150807;27;20474;-79
2022/09/06 01:37:58;;;;;;;6.20;1.40;;;15.50;1.00;;;;;;5146471;27;20550;-79
2022/09/06 01:40:26;;;;;;;4.63;1.30;;;15.50;1.00;;;;;;5143649;27;20514;-78
2022/09/06 01:42:54;;;;;;;9.80;1.90;;;15.50;1.00;;;;;;5130006;27;20464;-76
2022/09/06 01:45:32;;;;;;;4.60;1.43;;;15.60;1.00;;;;;;5107495;27;20515;-77
2022/09/06 01:48:11;;;;;;;5.07;1.60;;;15.60;1.00;;;;;;5149508;27;20436;-77
2022/09/06 01:51:06;;;;;;;5.20;1.23;;;15.60;1.00;;;;;;5131685;27;20472;-79
2022/09/06 01:53:49;;;;;;;5.53;1.40;;;15.60;1.00;;;;;;5150067;27;20467;-80
2022/09/06 01:56:36;;;;;;;6.00;1.90;;;15.60;1.00;;;;;;5134112;27;20484;-77
2022/09/06 01:59:41;;;;;;;6.47;1.20;;;15.50;1.00;;;;;;5142216;27;20470;-78
2022/09/06 02:02:16;;;;;;;5.10;1.90;;;15.60;1.00;;;;;;5143248;27;20456;-80
2022/09/06 02:04:45;;;;;;;5.60;1.37;;;15.40;1.00;;;;;;5147181;27;20463;-79
2022/09/06 02:07:20;;;;;;;5.20;1.77;;;15.50;1.00;;;;;;5134473;27;20456;-76
2022/09/06 02:09:54;;;;;;;5.00;1.50;;;15.50;1.00;;;;;;5148101;27;20439;-78
2022/09/06 02:12:25;;;;;;;5.80;1.47;;;15.40;1.00;;;;;;5133332;27;20569;-80
2022/09/06 02:15:01;;;;;;;5.40;1.60;;;15.40;1.00;;;;;;5148251;27;20439;-79
2022/09/06 02:17:36;;;;;;;4.87;1.67;;;15.40;1.00;;;;;;5123089;27;20396;-78
2022/09/06 02:20:06;;;;;;;6.57;1.90;;;15.40;1.00;;;;;;5131790;27;21169;-79
2022/09/06 02:22:41;;;;;;;6.10;1.33;;;15.30;1.00;;;;;;5145242;27;20452;-79
2022/09/06 02:25:12;;;;;;;4.87;1.60;;;15.20;1.00;;;;;;5150253;27;20444;-79
2022/09/06 02:27:42;;;;;;;5.20;1.70;;;15.20;1.00;;;;;;5147438;27;20468;-81
2022/09/06 02:30:11;;;;;;;5.10;1.80;;;15.20;1.00;;;;;;5144535;27;21080;-79
2022/09/06 02:32:49;;;;;;;8.80;1.73;;;15.10;1.00;;;;;;5138056;27;20893;-79
2022/09/06 02:35:18;;;;;;;5.73;1.40;;;15.10;1.00;;;;;;5145490;27;20463;-78
2022/09/06 02:37:47;;;;;;;5.50;1.60;;;15.10;1.00;;;;;;5150448;27;20447;-79
2022/09/06 02:40:14;;;;;;;5.07;1.57;;;15.10;1.00;;;;;;5118511;27;20479;-79
2022/09/06 02:42:41;;;;;;;6.80;1.63;;;15.10;1.00;;;;;;5133029;27;20974;-76
2022/09/06 02:45:09;;;;;;;6.53;1.63;;;15.00;1.00;;;;;;5117018;27;20470;-79
2022/09/06 02:47:40;;;;;;;6.30;1.67;;;15.00;1.00;;;;;;5126543;27;20414;-80
2022/09/06 02:50:08;;;;;;;6.00;1.60;;;15.00;1.00;;;;;;5129601;27;20479;-79
2022/09/06 02:52:39;;;;;;;6.27;1.93;;;15.00;1.00;;;;;;5142577;27;20413;-76
2022/09/06 02:55:07;;;;;;;6.20;1.70;;;14.90;1.00;;;;;;5137543;27;20464;-78
2022/09/06 02:57:42;;;;;;;5.50;1.43;;;14.90;1.00;;;;;;5148626;27;20459;-79
2022/09/06 03:00:10;;;;;;;9.70;1.73;;;15.00;1.00;;;;;;5153308;27;21203;-80
2022/09/06 03:02:43;;;;;;;7.20;2.43;;;15.00;1.00;;;;;;5156331;27;20416;-79
2022/09/06 03:05:10;;;;;;;5.50;1.80;;;15.00;1.00;;;;;;5138739;27;20561;-80
2022/09/06 03:07:44;;;;;;;6.17;1.93;;;15.00;1.00;;;;;;5148867;27;20457;-79
2022/09/06 03:10:10;;;;;;;5.70;2.07;;;15.00;1.00;;;;;;5149672;27;20479;-79
2022/09/06 03:12:41;;;;;;;5.60;1.80;;;15.00;1.00;;;;;;5146860;27;20411;-77
2022/09/06 03:15:09;;;;;;;7.27;2.10;;;14.90;1.00;;;;;;5145807;27;20459;-75
2022/09/06 03:17:36;;;;;;;6.70;2.00;;;14.90;1.00;;;;;;5152586;27;20400;-76
2022/09/06 03:20:13;;;;;;;5.97;1.90;;;14.90;1.00;;;;;;5147602;27;20918;-80
2022/09/06 03:22:41;;;;;;;6.10;2.00;;;14.90;1.00;;;;;;5153007;27;20462;-80
2022/09/06 03:25:16;;;;;;;6.97;2.20;;;14.80;1.00;;;;;;5147174;27;20535;-78
2022/09/06 03:27:44;;;;;;;5.63;1.93;;;14.80;1.00;;;;;;5147265;27;20950;-78
2022/09/06 03:30:12;;;;;;;7.27;2.20;;;14.80;1.00;;;;;;5154152;27;20517;-77
2022/09/06 03:32:40;;;;;;;8.00;1.93;;;14.80;1.00;;;;;;5150228;27;20432;-77
2022/09/06 03:35:11;;;;;;;6.00;2.20;;;14.80;1.00;;;;;;5142882;27;21005;-77
2022/09/06 03:37:40;;;;;;;6.03;2.20;;;14.80;1.00;;;;;;5144611;27;20430;-79
2022/09/06 03:40:08;;;;;;;6.10;2.10;;;14.80;1.00;;;;;;5114657;27;20481;-76
2022/09/06 03:42:40;;;;;;;7.47;2.07;;;14.80;1.00;;;;;;5118718;27;20432;-76
2022/09/06 03:45:08;;;;;;;6.13;1.93;;;14.70;1.00;;;;;;5132748;27;20463;-76
2022/09/06 03:47:39;;;;;;;6.40;2.10;;;14.80;1.00;;;;;;5136783;27;20485;-78
2022/09/06 03:50:09;;;;;;;5.63;2.00;;;14.80;1.00;;;;;;5135166;27;20476;-80
2022/09/06 03:52:41;;;;;;;7.87;1.57;;;14.80;1.00;;;;;;5145963;27;20412;-79
2022/09/06 03:55:10;;;;;;;8.43;2.63;;;14.80;1.00;;;;;;5145117;27;20487;-79
2022/09/06 03:57:41;;;;;;;6.47;1.87;;;14.80;1.00;;;;;;5138380;27;20428;-79
2022/09/06 04:00:10;;;;;;;11.87;2.37;;;14.70;1.00;;;;;;5119079;27;20887;-79
2022/09/06 04:02:40;;;;;;;10.20;2.90;;;14.70;1.00;;;;;;5127667;27;20437;-79
2022/09/06 04:05:09;;;;;;;6.57;2.47;;;14.70;1.00;;;;;;5127485;27;21122;-80
2022/09/06 04:07:39;;;;;;;6.70;2.70;;;14.70;1.00;;;;;;5125799;27;20429;-79
2022/09/06 04:10:07;;;;;;;5.20;1.67;;;14.70;1.00;;;;;;5127193;27;21298;-79
2022/09/06 04:12:34;;;;;;;7.40;2.50;;;14.70;1.00;;;;;;5127671;27;20450;-79
2022/09/06 04:15:01;;;;;;;6.90;3.03;;;14.70;1.00;;;;;;5130749;27;21370;-81
2022/09/06 04:17:32;;;;;;;6.00;2.07;;;14.70;1.00;;;;;;5128312;27;20453;-78
2022/09/06 04:19:59;;;;;;;5.50;1.90;;;14.70;1.00;;;;;;5132709;27;20503;-81
2022/09/06 04:22:29;;;;;;;10.27;3.70;;;14.70;1.00;;;;;;5133684;27;20462;-80
2022/09/06 04:24:57;;;;;;;6.50;2.30;;;14.70;1.00;;;;;;5128715;27;20457;-80
2022/09/06 04:27:27;;;;;;;5.90;2.67;;;14.60;1.00;;;;;;5156768;27;20397;-83
2022/09/06 04:29:55;;;;;;;7.30;1.90;;;14.60;1.00;;;;;;5158045;27;20591;-80
2022/09/06 04:32:26;;;;;;;7.60;3.63;;;14.60;1.00;;;;;;5156078;27;20454;-83
2022/09/06 04:34:53;;;;;;;5.20;1.80;;;14.60;1.00;;;;;;5147740;27;20452;-72
2022/09/06 04:37:19;;;;;;;5.90;2.67;;;14.60;1.00;;;;;;5150954;27;20898;-71
2022/09/06 04:39:47;;;;;;;7.27;2.50;;;14.60;1.00;;;;;;5146518;27;20468;-69
2022/09/06 04:42:17;;;;;;;7.13;3.20;;;14.70;1.00;;;;;;5148814;27;20443;-68
2022/09/06 04:44:47;;;;;;;7.73;2.10;;;14.80;1.00;;;;;;5124265;27;20459;-70
2022/09/06 04:47:17;;;;;;;6.53;2.00;;;14.90;1.00;;;;;;5144070;27;20460;-69
2022/09/06 04:49:43;;;;;;;5.67;2.07;;;14.90;1.00;;;;;;5140759;27;20431;-72
2022/09/06 04:52:14;;;;;;;7.33;2.27;;;15.00;1.00;;;;;;5144254;27;20564;-69
2022/09/06 04:54:43;;;;;;;6.70;2.60;;;15.00;1.00;;;;;;5143346;27;20456;-70
2022/09/06 04:57:11;;;;;;;6.30;2.10;;;15.00;1.00;;;;;;5143764;27;20837;-71
2022/09/06 04:59:38;;;;;;;6.70;2.50;;;15.00;1.00;;;;;;5146417;27;21096;-71
2022/09/06 05:02:07;;;;;;;8.40;2.43;;;15.00;1.00;;;;;;5144655;27;20472;-70
2022/09/06 05:04:37;;;;;;;5.77;1.93;;;15.10;1.00;;;;;;5145600;27;20416;-69
2022/09/06 05:07:07;;;;;;;6.50;2.63;;;15.00;1.00;;;;;;5140962;27;20452;-71
2022/09/06 05:09:37;;;;;;;7.60;2.40;;;15.00;1.00;;;;;;5117762;27;20465;-72
2022/09/06 05:12:05;;;;;;;7.43;3.10;;;15.10;1.00;;;;;;5131292;27;20468;-73
2022/09/06 05:14:37;;;;;;;6.23;2.13;;;15.10;1.00;;;;;;5144062;27;20830;-74
2022/09/06 05:17:07;;;;;;;7.40;2.40;;;15.20;1.00;;;;;;5145661;27;20483;-69
2022/09/06 05:19:34;;;;;;;5.40;1.77;;;15.20;1.00;;;;;;5144041;27;20489;-74
2022/09/06 05:22:01;;;;;;;9.00;2.90;;;15.20;1.00;;;;;;5143748;27;21062;-72
2022/09/06 05:24:29;;;;;;;9.00;1.90;;;15.30;1.00;;;;;;5145144;27;20443;-75
2022/09/06 05:26:55;;;;;;;5.80;1.97;;;15.30;1.00;;;;;;5148975;27;20537;-70
2022/09/06 05:29:22;;;;;;;7.07;2.50;;;15.20;1.00;;;;;;5132550;27;20464;-74
2022/09/06 05:31:58;;;;;;;7.23;2.20;;;15.30;1.00;;;;;;5138936;27;20483;-73
2022/09/06 05:34:25;;;;;;;7.37;2.47;;;15.20;1.00;;;;;;5140824;27;20891;-74
2022/09/06 05:36:52;;;;;;;7.93;2.27;;;15.20;1.00;;;;;;5142506;27;20480;-73
2022/09/06 05:39:20;;;;;;;7.83;2.13;;;15.10;1.00;;;;;;5152560;27;20456;-74
2022/09/06 05:41:47;;;;;;;6.27;2.20;;;15.10;1.00;;;;;;5148909;27;20444;-73
2022/09/06 05:44:14;;;;;;;5.93;2.40;;;15.20;1.00;;;;;;5128088;27;20445;-72
2022/09/06 05:46:48;;;;;;;6.60;2.30;;;15.20;1.00;;;;;;5140952;27;22462;-68
2022/09/06 05:49:16;;;;;;;8.93;2.10;;;15.30;1.00;;;;;;5147488;27;20491;-68
2022/09/06 05:51:50;;;;;;;11.20;5.63;;;15.30;1.00;;;;;;5141707;27;20451;-73
2022/09/06 05:54:17;;;;;;;6.57;2.70;;;15.40;1.00;;;;;;5149070;27;20459;-68
2022/09/06 05:56:46;;;;;;;6.87;2.40;;;15.50;1.00;;;;;;5146968;27;20408;-72
2022/09/06 05:59:17;;;;;;;6.60;2.13;;;15.50;1.00;;;;;;5140456;27;20974;-71
2022/09/06 06:01:48;;;;;;;9.03;2.73;;;15.70;1.00;;;;;;5109270;27;20456;-68
2022/09/06 06:04:18;;;;;;;6.67;1.63;;;15.70;1.00;;;;;;5130635;27;20457;-70
2022/09/06 06:06:48;;;;;;;4.90;1.90;;;15.60;1.00;;;;;;5135445;27;20465;-71
2022/09/06 06:09:16;;;;;;;8.37;2.57;;;15.60;1.00;;;;;;5127378;27;20456;-71
2022/09/06 06:11:48;;;;;;;10.50;2.40;;;15.60;1.00;;;;;;5124408;27;20467;-71
2022/09/06 06:14:15;;;;;;;8.00;2.27;;;15.70;1.00;;;;;;5125326;27;20968;-72
2022/09/06 06:16:42;;;;;;;6.40;2.17;;;15.80;1.00;;;;;;5128478;27;20481;-71
2022/09/06 06:19:10;;;;;;;7.90;2.10;;;15.80;1.00;;;;;;5127940;27;20499;-70
2022/09/06 06:21:38;;;;;;;9.00;2.57;;;15.90;1.00;;;;;;5125138;27;20518;-70
2022/09/06 06:24:06;;;;;;;5.23;1.73;;;15.90;1.00;;;;;;5121176;27;20464;-69
2022/09/06 06:26:34;;;;;;;11.40;2.27;;;16.00;1.00;;;;;;5138160;27;20511;-68
2022/09/06 06:29:01;;;;;;;7.00;2.40;;;16.10;1.00;;;;;;5137171;27;20476;-69
2022/09/06 06:31:28;;;;;;;7.33;2.30;;;16.10;1.00;;;;;;5132777;27;20499;-67
2022/09/06 06:33:55;;;;;;;8.37;2.13;;;16.20;1.00;;;;;;5122859;27;20453;-68
2022/09/06 06:36:23;;;;;;;8.17;2.70;;;16.20;1.00;;;;;;5121999;27;20503;-69
2022/09/06 06:38:53;;;;;;;8.80;2.60;;;16.10;1.00;;;;;;5122900;27;20496;-67
2022/09/06 06:41:22;;;;;;;6.67;2.20;;;16.20;1.00;;;;;;5118762;27;20460;-68
2022/09/06 06:43:52;;;;;;;6.67;2.20;;;16.20;1.00;;;;;;5124176;27;20821;-70
2022/09/06 06:46:19;;;;;;;6.70;2.20;;;16.30;1.00;;;;;;5115914;27;20453;-70
2022/09/06 06:48:46;;;;;;;5.93;1.80;;;16.30;1.00;;;;;;5123782;27;20500;-68
2022/09/06 06:51:15;;;;;;;8.63;3.00;;;16.40;1.00;;;;;;5122213;27;20448;-68
2022/09/06 06:53:42;;;;;;;10.10;3.00;;;16.40;1.00;;;;;;5126205;27;20460;-79
2022/09/06 06:56:18;;;;;;;7.30;2.90;;;16.60;1.00;;;;;;5116296;27;20983;-77
2022/09/06 06:58:47;;;;;;;10.23;2.37;;;16.50;1.00;;;;;;5139108;27;20480;-79
2022/09/06 07:01:28;;;;;;;8.40;3.00;;;16.60;1.00;;;;;;5127860;27;20451;-77
2022/09/06 07:03:59;;;;;;;6.30;2.50;;;16.80;1.00;;;;;;5130513;27;20436;-78
2022/09/06 07:06:27;;;;;;;5.37;2.00;;;16.90;1.00;;;;;;5136908;27;20459;-79
2022/09/06 07:08:59;;;;;;;6.70;2.33;;;16.80;1.00;;;;;;5142727;27;20440;-80
2022/09/06 07:11:31;;;;;;;6.30;1.77;;;16.90;1.00;;;;;;5141351;27;20446;-78
2022/09/06 07:13:58;;;;;;;6.70;2.00;;;16.90;1.00;;;;;;5145874;27;20462;-80
2022/09/06 07:16:29;;;;;;;5.77;2.33;;;17.10;1.00;;;;;;5130542;27;20484;-77
2022/09/06 07:18:56;;;;;;;6.57;2.27;;;17.20;1.00;;;;;;5144335;27;20678;-80
2022/09/06 07:21:29;;;;;;;5.20;2.13;;;17.30;1.00;;;;;;5146284;27;20444;-78
2022/09/06 07:23:56;;;;;;;6.30;2.60;;;17.20;1.00;;;;;;5148907;27;20541;-80
2022/09/06 07:26:41;;;;;;;6.30;2.60;;;17.40;1.00;;;;;;5138562;27;21403;-80
2022/09/06 07:29:11;;;;;;;10.50;3.20;;;17.50;1.00;;;;;;5123804;27;20442;-77
2022/09/06 07:31:38;;;;;;;7.40;2.47;;;17.80;1.00;;;;;;5127419;27;20438;-80
2022/09/06 07:34:11;;;;;;;12.63;6.03;;;18.00;1.00;;;;;;5128259;27;20436;-77
2022/09/06 07:36:38;;;;;;;7.83;2.93;;;18.20;1.00;;;;;;5124528;27;20457;-79
2022/09/06 07:39:10;;;;;;;7.73;2.50;;;18.30;1.00;;;;;;5128621;27;20423;-78
2022/09/06 07:41:39;;;;;;;12.00;2.60;;;18.40;1.00;;;;;;5127138;27;20457;-80
2022/09/06 07:44:14;;;;;;;6.90;2.73;;;18.20;1.00;;;;;;5125233;27;20425;-81
2022/09/06 07:46:42;;;;;;;6.10;2.13;;;18.20;1.00;;;;;;5129482;27;20480;-80
2022/09/06 07:49:10;;;;;;;7.30;2.30;;;18.30;1.00;;;;;;5135804;27;20443;-78
2022/09/06 07:51:37;;;;;;;11.67;6.10;;;18.30;1.00;;;;;;5133523;27;21229;-78
2022/09/06 07:54:10;;;;;;;8.43;2.50;;;18.40;1.00;;;;;;5125124;27;20456;-79
2022/09/06 07:56:36;;;;;;;7.20;2.87;;;18.50;1.00;;;;;;5134759;27;20456;-79
2022/09/06 07:59:03;;;;;;;8.23;2.70;;;18.60;1.00;;;;;;5132541;27;20471;-78
2022/09/06 08:01:33;;;;;;;10.70;3.43;;;18.60;1.00;;;;;;5128687;27;20436;-77
2022/09/06 08:04:01;;;;;;;9.83;3.30;;;18.60;1.00;;;;;;5131157;27;20865;-79
2022/09/06 08:06:30;;;;;;;7.90;3.40;;;18.80;1.00;;;;;;5129086;27;20460;-79
2022/09/06 08:09:01;;;;;;;8.60;3.33;;;19.10;1.00;;;;;;5127280;27;20462;-77
2022/09/06 08:11:31;;;;;;;7.37;3.07;;;19.30;1.00;;;;;;5122768;27;20483;-78
2022/09/06 08:14:00;;;;;;;7.53;2.53;;;19.30;1.00;;;;;;5123461;27;20448;-77
2022/09/06 08:16:36;;;;;;;8.13;3.23;;;19.40;1.00;;;;;;5128533;27;20398;-77
2022/09/06 08:19:10;;;;;;;6.90;3.80;;;19.30;1.00;;;;;;5128210;27;20546;-78
2022/09/06 08:21:37;;;;;;;7.70;3.00;;;19.50;1.00;;;;;;5134174;27;20456;-78
2022/09/06 08:24:12;;;;;;;6.40;3.00;;;19.60;1.00;;;;;;5129915;27;20464;-78
2022/09/06 08:26:41;;;;;;;9.33;3.10;;;19.70;1.00;;;;;;5126779;27;20447;-78
2022/09/06 08:29:12;;;;;;;8.10;3.10;;;19.80;1.00;;;;;;5128397;27;20469;-78
2022/09/06 08:31:42;;;;;;;7.93;3.60;;;20.00;1.00;;;;;;5128377;27;20457;-77
2022/09/06 08:34:11;;;;;;;10.40;3.37;;;20.00;1.00;;;;;;5122821;27;20448;-76
2022/09/06 08:36:44;;;;;;;12.33;3.20;;;20.00;1.00;;;;;;5112668;27;20429;-80
2022/09/06 08:39:12;;;;;;;9.93;3.80;;;19.90;1.00;;;;;;5103811;27;20556;-77
2022/09/06 08:41:48;;;;;;;7.40;3.60;;;19.90;1.00;;;;;;5113603;27;20416;-80
2022/09/06 08:44:22;;;;;;;8.57;3.40;;;20.10;1.00;;;;;;5088882;27;20461;-78
2022/09/06 08:47:00;;;;;;;6.50;3.67;;;19.90;1.00;;;;;;5118931;27;20468;-76
2022/09/06 08:49:32;;;;;;;8.80;3.80;;;19.90;1.00;;;;;;5109308;27;20482;-77
2022/09/06 08:52:40;;;;;;;8.10;3.90;;;19.90;1.00;;;;;;5114435;27;20436;-79
2022/09/06 08:55:24;;;;;;;9.10;4.03;;;20.00;1.00;;;;;;5129770;27;20409;-80
2022/09/06 08:58:16;;;;;;;6.87;3.20;;;20.40;1.00;;;;;;5125668;27;21204;-79
2022/09/06 09:00:57;;;;;;;7.73;3.23;;;20.60;1.00;;;;;;5122613;27;20483;-79
2022/09/06 09:03:32;;;;;;;9.90;3.40;;;20.80;1.00;;;;;;5142638;27;20456;-78
2022/09/06 09:06:04;;;;;;;10.60;3.90;;;20.70;1.00;;;;;;5122851;27;20450;-79
2022/09/06 09:08:43;;;;;;;8.07;4.70;;;20.70;1.00;;;;;;5137936;27;20468;-78
2022/09/06 09:11:16;;;;;;;7.60;3.60;;;20.80;1.00;;;;;;5132382;27;20428;-81
2022/09/06 09:13:54;;;;;;;7.13;3.67;;;21.10;1.00;;;;;;5129666;27;20461;-79
2022/09/06 09:16:21;;;;;;;9.77;4.10;;;21.10;1.00;;;;;;5134134;27;21019;-82
2022/09/06 09:18:53;;;;;;;7.60;3.50;;;21.40;1.00;;;;;;5124875;27;20454;-80
2022/09/06 09:21:23;;;;;;;6.80;3.13;;;21.60;1.00;;;;;;5119974;27;20439;-80
2022/09/06 09:23:53;;;;;;;10.33;3.27;;;21.70;1.00;;;;;;5131938;27;20535;-80
2022/09/06 09:26:24;;;;;;;11.00;3.60;;;21.90;1.00;;;;;;5140595;27;20425;-79
2022/09/06 09:29:06;;;;;;;7.80;3.43;;;22.20;1.00;;;;;;5151337;27;20556;-80
2022/09/06 09:31:40;;;;;;;10.07;3.80;;;22.90;1.00;;;;;;5146816;27;20986;-79
2022/09/06 09:34:13;;;;;;;7.47;3.00;;;23.40;1.00;;;;;;5138787;27;20444;-77
2022/09/06 09:36:41;;;;;;;8.63;3.43;;;23.80;1.00;;;;;;5146242;27;20475;-80
2022/09/06 09:39:11;;;;;;;8.90;3.57;;;23.20;1.00;;;;;;5152905;27;20491;-78
2022/09/06 09:41:42;;;;;;;7.17;3.63;;;23.00;1.00;;;;;;5156630;27;20417;-80
2022/09/06 09:44:26;;;;;;;8.07;3.60;;;23.00;1.00;;;;;;5147098;27;20847;-78
2022/09/06 09:46:54;;;;;;;10.60;3.83;;;22.90;1.00;;;;;;5130359;27;20480;-80
2022/09/06 09:49:30;;;;;;;10.50;4.23;;;22.90;1.00;;;;;;5146894;27;20413;-77
2022/09/06 09:52:10;;;;;;;8.70;4.00;;;23.00;1.00;;;;;;5148319;27;20469;-79
2022/09/06 09:54:43;;;;;;;7.63;4.10;;;22.90;1.00;;;;;;5129823;27;20411;-77
2022/09/06 09:57:20;;;;;;;8.67;3.33;;;22.90;1.00;;;;;;5138403;27;20432;-79
2022/09/06 09:59:53;;;;;;;8.20;3.50;;;22.80;1.00;;;;;;5139647;27;20457;-80
2022/09/06 10:02:27;;;;;;;9.27;3.93;;;22.70;1.00;;;;;;5144784;27;20967;-79
2022/09/06 10:05:11;;;;;;;9.27;4.57;;;22.80;1.00;;;;;;5113611;27;20886;-79
2022/09/06 10:07:44;;;;;;;7.33;3.83;;;22.90;1.00;;;;;;5122816;27;20417;-80
2022/09/06 10:10:14;;;;;;;8.40;4.10;;;23.20;1.00;;;;;;5131792;27;20481;-78
2022/09/06 10:12:42;;;;;;;6.97;4.00;;;23.60;1.00;;;;;;5147595;27;20538;-80
2022/09/06 10:15:11;;;;;;;8.73;4.43;;;23.80;1.00;;;;;;5139675;27;20451;-80
2022/09/06 10:17:49;;;;;;;12.40;5.27;;;24.10;1.00;;;;;;5132082;27;20414;-79
2022/09/06 10:20:29;;;;;;;7.43;4.13;;;24.20;1.00;;;;;;5109324;27;20467;-77
2022/09/06 10:23:06;;;;;;;12.13;4.83;;;24.10;1.00;;;;;;5149420;27;20465;-81
2022/09/06 10:25:45;;;;;;;8.53;4.40;;;23.60;1.00;;;;;;5143739;27;20440;-79
2022/09/06 10:28:31;;;;;;;7.37;4.13;;;23.70;1.00;;;;;;5147698;27;20464;-78
2022/09/06 10:31:25;;;;;;;11.43;6.20;;;23.20;1.00;;;;;;5149870;27;20427;-79
2022/09/06 10:34:20;;;;;;;8.07;4.13;;;22.90;1.00;;;;;;5124772;27;20577;-79
2022/09/06 10:37:01;;;;;;;15.57;5.53;;;22.70;1.00;;;;;;5139847;27;20466;-79
2022/09/06 10:39:42;;;;;;;7.60;4.27;;;22.50;1.00;;;;;;5145453;27;20535;-80
2022/09/06 10:42:19;;;;;;;8.93;4.40;;;22.50;1.00;;;;;;5128466;27;20453;-80
2022/09/06 10:45:03;;;;;;;8.30;4.50;;;22.10;1.00;;;;;;5119815;27;20472;-80
2022/09/06 10:47:44;;;;;;;7.27;4.40;;;22.10;1.00;;;;;;5127067;27;20547;-77
2022/09/06 10:50:11;;;;;;;9.10;4.77;;;22.00;1.00;;;;;;5114239;27;26739;-79
2022/09/06 10:52:50;;;;;;;7.40;3.87;;;21.90;1.00;;;;;;5147252;27;20424;-81
2022/09/06 10:55:19;;;;;;;12.27;5.37;;;22.10;1.00;;;;;;5136543;27;20436;-79
2022/09/06 10:57:51;;;;;;;9.00;4.10;;;22.30;1.00;;;;;;5145766;27;20452;-78
2022/09/06 11:00:18;;;;;;;8.43;4.50;;;22.50;1.00;;;;;;5126787;27;20421;-76
2022/09/06 11:02:54;;;;;;;13.43;5.03;;;22.50;1.00;;;;;;5150201;27;20901;-80
2022/09/06 11:05:29;;;;;;;11.20;4.50;;;22.40;1.00;;;;;;5134642;27;20514;-80
2022/09/06 11:08:03;;;;;;;8.93;5.20;;;22.50;1.00;;;;;;5142285;27;20424;-79
2022/09/06 11:10:32;;;;;;;7.43;4.60;;;22.70;1.00;;;;;;5142990;27;20451;-78
2022/09/06 11:13:03;;;;;;;8.20;4.87;;;22.60;1.00;;;;;;5110780;27;20487;-81
2022/09/06 11:15:41;;;;;;;8.67;4.20;;;22.60;1.00;;;;;;5150891;27;20530;-80
2022/09/06 11:18:17;;;;;;;11.63;5.37;;;22.80;1.00;;;;;;5147616;27;20467;-80
2022/09/06 11:20:54;;;;;;;11.33;5.73;;;23.10;1.00;;;;;;5141007;27;20458;-80
2022/09/06 11:23:37;;;;;;;10.13;4.83;;;23.50;1.00;;;;;;5150329;27;20415;-80
2022/09/06 11:26:26;;;;;;;8.07;4.50;;;24.00;1.00;;;;;;5147400;27;20481;-81
2022/09/06 11:28:56;;;;;;;9.13;4.47;;;24.60;1.00;;;;;;5147482;27;20980;-81
2022/09/06 11:31:26;;;;;;;13.60;5.60;;;24.50;1.00;;;;;;5151400;27;20423;-86
2022/09/06 11:34:09;;;;;;;12.80;4.30;;;24.60;1.00;;;;;;5150276;27;20416;-83
2022/09/06 11:36:38;;;;;;;9.20;4.30;;;24.50;1.00;;;;;;5149598;27;20962;-84
2022/09/06 11:39:09;;;;;;;8.10;4.63;;;24.00;1.00;;;;;;5154026;27;20416;-84
2022/09/06 11:41:40;;;;;;;7.23;4.83;;;23.80;1.00;;;;;;5151193;27;20466;-83
2022/09/06 11:44:11;;;;;;;6.83;4.20;;;23.60;1.00;;;;;;5156017;27;20424;-83
2022/09/06 11:46:58;;;;;;;8.87;4.50;;;23.40;1.00;;;;;;5154688;27;20494;-81
2022/09/06 11:49:40;;;;;;;7.77;4.63;;;23.20;1.00;;;;;;5150729;27;20930;-76
2022/09/06 11:52:44;;;;;;;10.43;4.50;;;23.00;1.00;;;;;;5151370;27;20471;-77
2022/09/06 11:55:16;;;;;;;8.40;4.20;;;22.90;1.00;;;;;;5113904;27;20455;-78
2022/09/06 11:57:47;;;;;;;8.00;4.87;;;22.80;1.00;;;;;;5150154;27;20420;-76
2022/09/06 12:00:23;;;;;;;7.70;5.10;;;22.60;1.00;;;;;;5146422;27;20455;-76
2022/09/06 12:02:51;;;;;;;11.00;5.00;;;22.60;1.00;;;;;;5148208;27;20443;-76
2022/09/06 12:05:28;;;;;;;7.80;4.53;;;22.60;1.00;;;;;;5150465;27;20472;-80
2022/09/06 12:08:30;;;;;;;7.23;4.40;;;22.60;1.00;;;;;;5136167;27;20475;-76
2022/09/06 12:11:02;;;;;;;9.43;4.73;;;22.80;1.00;;;;;;5143822;27;20864;-75
2022/09/06 12:14:09;;;;;;;8.87;4.70;;;22.80;1.00;;;;;;5150806;27;20411;-77
2022/09/06 12:17:29;;;;;;;7.27;3.77;;;23.00;1.00;;;;;;5146831;27;21067;-77
2022/09/06 12:20:14;;;;;;;7.23;4.30;;;23.10;1.00;;;;;;5148367;27;20476;-79
2022/09/06 12:23:03;;;;;;;11.63;4.53;;;23.00;1.00;;;;;;5149946;27;20471;-79
2022/09/06 12:25:59;;;;;;;7.50;4.60;;;23.10;1.00;;;;;;5135687;27;20482;-76
2022/09/06 12:28:35;;;;;;;8.97;5.33;;;23.00;1.00;;;;;;5129198;27;20445;-77
2022/09/06 12:31:22;;;;;;;10.90;5.27;;;23.20;1.00;;;;;;5129675;27;20482;-76
2022/09/06 12:33:53;;;;;;;10.20;5.90;;;23.30;1.00;;;;;;5142473;27;20491;-77
2022/09/06 12:36:28;;;;;;;8.20;4.77;;;23.40;1.00;;;;;;5148977;27;20455;-79
2022/09/06 12:39:01;;;;;;;6.70;4.33;;;23.50;1.00;;;;;;5142362;27;20499;-78
2022/09/06 12:41:32;;;;;;;9.60;5.30;;;23.60;1.00;;;;;;5139232;27;20490;-76
2022/09/06 12:44:00;;;;;;;7.70;4.97;;;23.60;1.00;;;;;;5137211;27;20855;-76
2022/09/06 12:46:38;;;;;;;9.13;5.60;;;23.80;1.00;;;;;;5150885;27;20413;-80
2022/09/06 12:49:11;;;;;;;11.13;5.90;;;23.50;1.00;;;;;;5146773;27;20567;-81
2022/09/06 12:51:40;;;;;;;9.33;5.20;;;23.60;1.00;;;;;;5131610;27;20472;-75
2022/09/06 12:54:19;;;;;;;10.10;5.50;;;23.70;1.00;;;;;;5140367;27;20421;-77
2022/09/06 12:56:48;;;;;;;8.50;4.83;;;23.50;1.00;;;;;;5129589;27;20967;-77
2022/09/06 12:59:22;;;;;;;11.27;5.23;;;23.60;1.00;;;;;;5127441;27;20544;-77
2022/09/06 13:02:01;;;;;;;7.93;4.50;;;23.90;1.00;;;;;;5125506;27;20563;-76
2022/09/06 13:04:38;;;;;;;9.80;5.10;;;24.10;1.00;;;;;;5117590;27;20450;-77
2022/09/06 13:07:11;;;;;;;10.60;4.80;;;24.30;1.00;;;;;;5120973;27;20461;-76
2022/09/06 13:09:42;;;;;;;7.60;5.30;;;24.70;1.00;;;;;;5130743;27;20548;-76
2022/09/06 13:12:25;;;;;;;8.00;5.20;;;25.00;1.00;;;;;;5146356;27;20944;-77
2022/09/06 13:14:53;;;;;;;9.83;5.33;;;25.10;1.00;;;;;;5130850;27;20500;-79
2022/09/06 13:17:26;;;;;;;9.80;5.30;;;24.60;1.00;;;;;;5136245;27;20404;-78
2022/09/06 13:19:53;;;;;;;8.43;4.90;;;24.50;1.00;;;;;;5147852;27;20512;-76
2022/09/06 13:22:44;;;;;;;7.67;5.20;;;24.70;1.00;;;;;;5151058;27;20464;-76
2022/09/06 13:25:19;;;;;;;9.93;5.40;;;24.70;1.00;;;;;;5141541;27;20546;-79
2022/09/06 13:27:55;;;;;;;8.60;5.10;;;24.60;1.00;;;;;;5146048;27;20480;-79